sensor_id;sensor_type;location;lat;lon;timestamp;P1;durP1;ratioP1;P2;durP2;ratioP2
2434;SDS011;1228;51.022;6.764;2022-12-16T00:00:24;11.60;;;10.70;;
2434;SDS011;1228;51.022;6.764;2022-12-16T00:02:51;10.63;;;9.77;;
2434;SDS011;1228;51.022;6.764;2022-12-16T00:05:16;13.83;;;13.00;;
2434;SDS011;1228;51.022;6.764;2022-12-16T00:07:45;11.50;;;10.63;;
2434;SDS011;1228;51.022;6.764;2022-12-16T00:10:11;13.27;;;12.20;;
2434;SDS011;1228;51.022;6.764;2022-12-16T00:12:37;12.37;;;9.60;;
2434;SDS011;1228;51.022;6.764;2022-12-16T00:15:03;23.10;;;11.57;;
2434;SDS011;1228;51.022;6.764;2022-12-16T00:17:28;13.40;;;11.23;;
2434;SDS011;1228;51.022;6.764;2022-12-16T00:19:54;11.43;;;10.43;;
2434;SDS011;1228;51.022;6.764;2022-12-16T00:22:20;15.83;;;14.60;;
2434;SDS011;1228;51.022;6.764;2022-12-16T00:24:46;17.47;;;10.10;;
2434;SDS011;1228;51.022;6.764;2022-12-16T00:27:12;11.83;;;10.83;;
2434;SDS011;1228;51.022;6.764;2022-12-16T00:29:38;10.90;;;10.13;;
2434;SDS011;1228;51.022;6.764;2022-12-16T00:32:03;11.17;;;10.37;;
2434;SDS011;1228;51.022;6.764;2022-12-16T00:34:30;12.70;;;11.50;;
2434;SDS011;1228;51.022;6.764;2022-12-16T00:36:56;11.13;;;10.50;;
2434;SDS011;1228;51.022;6.764;2022-12-16T00:39:21;13.97;;;13.13;;
2434;SDS011;1228;51.022;6.764;2022-12-16T00:41:47;11.83;;;10.67;;
2434;SDS011;1228;51.022;6.764;2022-12-16T00:44:13;9.33;;;8.83;;
2434;SDS011;1228;51.022;6.764;2022-12-16T00:46:38;11.57;;;10.47;;
2434;SDS011;1228;51.022;6.764;2022-12-16T00:49:04;9.87;;;9.37;;
2434;SDS011;1228;51.022;6.764;2022-12-16T00:51:30;12.10;;;11.23;;
2434;SDS011;1228;51.022;6.764;2022-12-16T00:53:55;13.53;;;12.30;;
2434;SDS011;1228;51.022;6.764;2022-12-16T00:56:21;11.67;;;10.97;;
2434;SDS011;1228;51.022;6.764;2022-12-16T00:58:47;10.20;;;9.60;;
2434;SDS011;1228;51.022;6.764;2022-12-16T01:01:12;10.93;;;10.23;;
2434;SDS011;1228;51.022;6.764;2022-12-16T01:03:38;11.47;;;10.47;;
2434;SDS011;1228;51.022;6.764;2022-12-16T01:06:12;12.03;;;11.13;;
2434;SDS011;1228;51.022;6.764;2022-12-16T01:08:39;10.20;;;9.67;;
2434;SDS011;1228;51.022;6.764;2022-12-16T01:11:12;14.93;;;13.53;;
2434;SDS011;1228;51.022;6.764;2022-12-16T01:13:39;12.23;;;11.53;;
2434;SDS011;1228;51.022;6.764;2022-12-16T01:16:05;10.10;;;9.63;;
2434;SDS011;1228;51.022;6.764;2022-12-16T01:18:31;17.00;;;10.50;;
2434;SDS011;1228;51.022;6.764;2022-12-16T01:21:06;11.73;;;10.93;;
2434;SDS011;1228;51.022;6.764;2022-12-16T01:23:34;11.97;;;10.50;;
2434;SDS011;1228;51.022;6.764;2022-12-16T01:26:00;12.83;;;11.83;;
2434;SDS011;1228;51.022;6.764;2022-12-16T01:28:26;10.90;;;10.30;;
2434;SDS011;1228;51.022;6.764;2022-12-16T01:30:56;18.23;;;13.30;;
2434;SDS011;1228;51.022;6.764;2022-12-16T01:33:25;11.00;;;10.30;;
2434;SDS011;1228;51.022;6.764;2022-12-16T01:35:58;20.13;;;10.03;;
2434;SDS011;1228;51.022;6.764;2022-12-16T01:38:29;10.30;;;9.80;;
2434;SDS011;1228;51.022;6.764;2022-12-16T01:40:55;13.73;;;12.57;;
2434;SDS011;1228;51.022;6.764;2022-12-16T01:43:26;11.53;;;10.60;;
2434;SDS011;1228;51.022;6.764;2022-12-16T01:46:13;12.57;;;11.23;;
2434;SDS011;1228;51.022;6.764;2022-12-16T01:49:00;13.57;;;12.47;;
2434;SDS011;1228;51.022;6.764;2022-12-16T01:54:03;13.93;;;9.83;;
2434;SDS011;1228;51.022;6.764;2022-12-16T01:57:02;14.83;;;13.77;;
2434;SDS011;1228;51.022;6.764;2022-12-16T01:59:30;11.47;;;10.80;;
2434;SDS011;1228;51.022;6.764;2022-12-16T02:01:59;25.50;;;11.53;;
2434;SDS011;1228;51.022;6.764;2022-12-16T02:04:26;11.57;;;10.43;;
2434;SDS011;1228;51.022;6.764;2022-12-16T02:06:52;24.90;;;11.87;;
2434;SDS011;1228;51.022;6.764;2022-12-16T02:09:18;11.20;;;10.33;;
2434;SDS011;1228;51.022;6.764;2022-12-16T02:33:09;19.70;;;10.07;;
2434;SDS011;1228;51.022;6.764;2022-12-16T02:38:06;9.90;;;9.03;;
2434;SDS011;1228;51.022;6.764;2022-12-16T02:40:45;11.87;;;10.70;;
2434;SDS011;1228;51.022;6.764;2022-12-16T02:43:41;11.00;;;10.50;;
2434;SDS011;1228;51.022;6.764;2022-12-16T02:46:16;12.20;;;11.20;;
2434;SDS011;1228;51.022;6.764;2022-12-16T02:48:43;10.77;;;10.03;;
2434;SDS011;1228;51.022;6.764;2022-12-16T02:51:08;16.13;;;13.03;;
2434;SDS011;1228;51.022;6.764;2022-12-16T02:53:35;11.00;;;10.07;;
2434;SDS011;1228;51.022;6.764;2022-12-16T03:01:36;9.73;;;9.33;;
2434;SDS011;1228;51.022;6.764;2022-12-16T03:04:21;11.87;;;11.03;;
2434;SDS011;1228;51.022;6.764;2022-12-16T03:06:52;11.03;;;10.47;;
2434;SDS011;1228;51.022;6.764;2022-12-16T03:09:23;9.60;;;9.00;;
2434;SDS011;1228;51.022;6.764;2022-12-16T03:11:53;11.07;;;10.20;;
2434;SDS011;1228;51.022;6.764;2022-12-16T03:14:21;10.10;;;8.93;;
2434;SDS011;1228;51.022;6.764;2022-12-16T03:16:49;13.73;;;11.33;;
2434;SDS011;1228;51.022;6.764;2022-12-16T03:19:15;11.60;;;10.40;;
2434;SDS011;1228;51.022;6.764;2022-12-16T03:21:49;9.87;;;9.40;;
2434;SDS011;1228;51.022;6.764;2022-12-16T03:24:20;12.17;;;11.17;;
2434;SDS011;1228;51.022;6.764;2022-12-16T03:32:04;10.10;;;9.27;;
2434;SDS011;1228;51.022;6.764;2022-12-16T03:37:14;12.77;;;11.50;;
2434;SDS011;1228;51.022;6.764;2022-12-16T03:39:45;11.13;;;10.60;;
2434;SDS011;1228;51.022;6.764;2022-12-16T03:42:12;9.80;;;9.23;;
2434;SDS011;1228;51.022;6.764;2022-12-16T03:44:39;13.20;;;12.37;;
2434;SDS011;1228;51.022;6.764;2022-12-16T03:47:07;15.40;;;14.03;;
2434;SDS011;1228;51.022;6.764;2022-12-16T03:49:33;12.10;;;11.40;;
2434;SDS011;1228;51.022;6.764;2022-12-16T03:51:58;11.37;;;10.47;;
2434;SDS011;1228;51.022;6.764;2022-12-16T03:54:24;13.63;;;12.20;;
2434;SDS011;1228;51.022;6.764;2022-12-16T03:56:50;13.30;;;12.00;;
2434;SDS011;1228;51.022;6.764;2022-12-16T03:59:16;11.80;;;11.10;;
2434;SDS011;1228;51.022;6.764;2022-12-16T04:01:42;11.43;;;10.80;;
2434;SDS011;1228;51.022;6.764;2022-12-16T04:04:07;12.33;;;11.20;;
2434;SDS011;1228;51.022;6.764;2022-12-16T04:06:33;12.27;;;11.57;;
2434;SDS011;1228;51.022;6.764;2022-12-16T04:08:59;10.90;;;10.07;;
2434;SDS011;1228;51.022;6.764;2022-12-16T04:11:24;12.83;;;11.50;;
2434;SDS011;1228;51.022;6.764;2022-12-16T04:14:08;9.77;;;9.27;;
2434;SDS011;1228;51.022;6.764;2022-12-16T04:16:53;13.63;;;12.53;;
2434;SDS011;1228;51.022;6.764;2022-12-16T04:19:37;9.93;;;9.50;;
2434;SDS011;1228;51.022;6.764;2022-12-16T04:22:24;10.90;;;10.17;;
2434;SDS011;1228;51.022;6.764;2022-12-16T04:25:14;10.53;;;10.03;;
2434;SDS011;1228;51.022;6.764;2022-12-16T04:27:43;12.50;;;11.40;;
2434;SDS011;1228;51.022;6.764;2022-12-16T04:30:12;16.50;;;15.13;;
2434;SDS011;1228;51.022;6.764;2022-12-16T04:32:46;11.67;;;10.77;;
2434;SDS011;1228;51.022;6.764;2022-12-16T04:35:35;10.00;;;9.40;;
2434;SDS011;1228;51.022;6.764;2022-12-16T04:38:19;17.60;;;12.83;;
2434;SDS011;1228;51.022;6.764;2022-12-16T04:41:04;9.50;;;9.00;;
2434;SDS011;1228;51.022;6.764;2022-12-16T04:43:47;13.80;;;12.50;;
2434;SDS011;1228;51.022;6.764;2022-12-16T04:46:32;10.97;;;9.87;;
2434;SDS011;1228;51.022;6.764;2022-12-16T04:49:16;21.13;;;12.30;;
2434;SDS011;1228;51.022;6.764;2022-12-16T04:52:00;11.93;;;10.83;;
2434;SDS011;1228;51.022;6.764;2022-12-16T04:54:44;10.20;;;9.73;;
2434;SDS011;1228;51.022;6.764;2022-12-16T04:57:28;11.87;;;10.13;;
2434;SDS011;1228;51.022;6.764;2022-12-16T05:00:12;13.00;;;11.77;;
2434;SDS011;1228;51.022;6.764;2022-12-16T05:02:56;12.60;;;11.77;;
2434;SDS011;1228;51.022;6.764;2022-12-16T05:05:41;12.20;;;11.03;;
2434;SDS011;1228;51.022;6.764;2022-12-16T05:08:25;15.23;;;12.43;;
2434;SDS011;1228;51.022;6.764;2022-12-16T05:11:09;12.53;;;11.63;;
2434;SDS011;1228;51.022;6.764;2022-12-16T05:13:53;11.80;;;11.03;;
2434;SDS011;1228;51.022;6.764;2022-12-16T05:16:37;11.20;;;10.43;;
2434;SDS011;1228;51.022;6.764;2022-12-16T05:19:21;10.37;;;9.53;;
2434;SDS011;1228;51.022;6.764;2022-12-16T05:22:05;11.60;;;10.77;;
2434;SDS011;1228;51.022;6.764;2022-12-16T05:24:49;11.23;;;10.67;;
2434;SDS011;1228;51.022;6.764;2022-12-16T05:27:33;13.37;;;12.03;;
2434;SDS011;1228;51.022;6.764;2022-12-16T05:30:17;10.90;;;10.17;;
2434;SDS011;1228;51.022;6.764;2022-12-16T05:33:01;12.40;;;11.53;;
2434;SDS011;1228;51.022;6.764;2022-12-16T05:35:45;14.03;;;11.17;;
2434;SDS011;1228;51.022;6.764;2022-12-16T05:38:29;9.10;;;8.70;;
2434;SDS011;1228;51.022;6.764;2022-12-16T05:41:13;18.73;;;12.07;;
2434;SDS011;1228;51.022;6.764;2022-12-16T05:43:57;10.00;;;9.50;;
2434;SDS011;1228;51.022;6.764;2022-12-16T05:46:41;11.87;;;11.07;;
2434;SDS011;1228;51.022;6.764;2022-12-16T05:49:25;10.63;;;9.97;;
2434;SDS011;1228;51.022;6.764;2022-12-16T05:52:09;11.40;;;10.73;;
2434;SDS011;1228;51.022;6.764;2022-12-16T05:54:53;9.77;;;9.33;;
2434;SDS011;1228;51.022;6.764;2022-12-16T05:57:37;14.17;;;12.30;;
2434;SDS011;1228;51.022;6.764;2022-12-16T06:00:21;12.10;;;11.10;;
2434;SDS011;1228;51.022;6.764;2022-12-16T06:03:05;10.27;;;9.73;;
2434;SDS011;1228;51.022;6.764;2022-12-16T06:05:49;12.93;;;11.93;;
2434;SDS011;1228;51.022;6.764;2022-12-16T06:08:33;11.77;;;10.77;;
2434;SDS011;1228;51.022;6.764;2022-12-16T06:11:17;12.30;;;11.60;;
2434;SDS011;1228;51.022;6.764;2022-12-16T06:14:01;10.27;;;9.57;;
2434;SDS011;1228;51.022;6.764;2022-12-16T06:16:45;12.63;;;11.77;;
2434;SDS011;1228;51.022;6.764;2022-12-16T06:19:29;16.43;;;10.40;;
2434;SDS011;1228;51.022;6.764;2022-12-16T06:22:13;10.57;;;9.97;;
2434;SDS011;1228;51.022;6.764;2022-12-16T06:24:57;16.27;;;13.97;;
2434;SDS011;1228;51.022;6.764;2022-12-16T06:27:41;10.90;;;10.10;;
2434;SDS011;1228;51.022;6.764;2022-12-16T06:30:25;13.50;;;12.37;;
2434;SDS011;1228;51.022;6.764;2022-12-16T06:33:09;11.03;;;10.17;;
2434;SDS011;1228;51.022;6.764;2022-12-16T06:35:54;11.67;;;10.83;;
2434;SDS011;1228;51.022;6.764;2022-12-16T06:38:37;11.07;;;10.07;;
2434;SDS011;1228;51.022;6.764;2022-12-16T06:41:21;12.53;;;11.80;;
2434;SDS011;1228;51.022;6.764;2022-12-16T06:44:05;11.87;;;10.93;;
2434;SDS011;1228;51.022;6.764;2022-12-16T06:46:49;12.23;;;11.47;;
2434;SDS011;1228;51.022;6.764;2022-12-16T06:49:33;12.63;;;11.90;;
2434;SDS011;1228;51.022;6.764;2022-12-16T06:52:17;11.30;;;10.73;;
2434;SDS011;1228;51.022;6.764;2022-12-16T06:55:01;18.20;;;10.87;;
2434;SDS011;1228;51.022;6.764;2022-12-16T06:57:46;12.80;;;11.20;;
2434;SDS011;1228;51.022;6.764;2022-12-16T07:00:30;12.93;;;11.97;;
2434;SDS011;1228;51.022;6.764;2022-12-16T07:03:14;14.37;;;13.67;;
2434;SDS011;1228;51.022;6.764;2022-12-16T07:05:58;22.70;;;12.90;;
2434;SDS011;1228;51.022;6.764;2022-12-16T07:08:42;10.40;;;9.77;;
2434;SDS011;1228;51.022;6.764;2022-12-16T07:11:26;12.03;;;10.97;;
2434;SDS011;1228;51.022;6.764;2022-12-16T07:14:10;10.10;;;9.67;;
2434;SDS011;1228;51.022;6.764;2022-12-16T07:16:54;11.20;;;10.50;;
2434;SDS011;1228;51.022;6.764;2022-12-16T07:19:38;9.13;;;8.73;;
2434;SDS011;1228;51.022;6.764;2022-12-16T07:22:22;11.73;;;10.63;;
2434;SDS011;1228;51.022;6.764;2022-12-16T07:25:06;11.43;;;10.63;;
2434;SDS011;1228;51.022;6.764;2022-12-16T07:27:51;12.83;;;11.87;;
2434;SDS011;1228;51.022;6.764;2022-12-16T07:30:36;13.87;;;12.87;;
2434;SDS011;1228;51.022;6.764;2022-12-16T07:33:20;14.50;;;11.20;;
2434;SDS011;1228;51.022;6.764;2022-12-16T07:36:04;10.83;;;10.20;;
2434;SDS011;1228;51.022;6.764;2022-12-16T07:38:48;15.07;;;13.87;;
2434;SDS011;1228;51.022;6.764;2022-12-16T07:41:32;12.03;;;11.00;;
2434;SDS011;1228;51.022;6.764;2022-12-16T07:44:16;10.73;;;10.13;;
2434;SDS011;1228;51.022;6.764;2022-12-16T07:47:00;19.10;;;9.60;;
2434;SDS011;1228;51.022;6.764;2022-12-16T07:49:44;11.70;;;11.00;;
2434;SDS011;1228;51.022;6.764;2022-12-16T07:52:28;10.87;;;10.27;;
2434;SDS011;1228;51.022;6.764;2022-12-16T07:55:12;12.03;;;11.03;;
2434;SDS011;1228;51.022;6.764;2022-12-16T07:57:56;12.73;;;11.40;;
2434;SDS011;1228;51.022;6.764;2022-12-16T08:00:40;11.17;;;10.47;;
2434;SDS011;1228;51.022;6.764;2022-12-16T08:03:24;13.17;;;12.33;;
2434;SDS011;1228;51.022;6.764;2022-12-16T08:06:08;13.23;;;10.70;;
2434;SDS011;1228;51.022;6.764;2022-12-16T08:08:52;12.57;;;11.87;;
2434;SDS011;1228;51.022;6.764;2022-12-16T08:11:37;12.97;;;11.20;;
2434;SDS011;1228;51.022;6.764;2022-12-16T08:14:21;10.17;;;9.60;;
2434;SDS011;1228;51.022;6.764;2022-12-16T08:17:05;13.33;;;12.43;;
2434;SDS011;1228;51.022;6.764;2022-12-16T08:19:49;13.57;;;11.90;;
2434;SDS011;1228;51.022;6.764;2022-12-16T08:22:33;12.67;;;11.37;;
2434;SDS011;1228;51.022;6.764;2022-12-16T08:25:17;11.77;;;10.67;;
2434;SDS011;1228;51.022;6.764;2022-12-16T08:28:01;11.17;;;10.20;;
2434;SDS011;1228;51.022;6.764;2022-12-16T08:30:48;9.33;;;8.93;;
2434;SDS011;1228;51.022;6.764;2022-12-16T08:33:33;11.17;;;10.23;;
2434;SDS011;1228;51.022;6.764;2022-12-16T08:36:17;11.33;;;10.17;;
2434;SDS011;1228;51.022;6.764;2022-12-16T08:39:01;14.97;;;9.63;;
2434;SDS011;1228;51.022;6.764;2022-12-16T08:41:45;11.83;;;10.40;;
2434;SDS011;1228;51.022;6.764;2022-12-16T08:44:29;10.97;;;10.33;;
2434;SDS011;1228;51.022;6.764;2022-12-16T08:47:13;11.93;;;10.47;;
2434;SDS011;1228;51.022;6.764;2022-12-16T08:49:57;9.90;;;9.27;;
2434;SDS011;1228;51.022;6.764;2022-12-16T08:52:41;10.57;;;9.83;;
2434;SDS011;1228;51.022;6.764;2022-12-16T08:55:25;9.87;;;8.90;;
2434;SDS011;1228;51.022;6.764;2022-12-16T08:58:09;10.07;;;8.93;;
2434;SDS011;1228;51.022;6.764;2022-12-16T09:00:53;12.53;;;11.83;;
2434;SDS011;1228;51.022;6.764;2022-12-16T09:03:37;15.77;;;11.83;;
2434;SDS011;1228;51.022;6.764;2022-12-16T09:06:21;13.53;;;12.60;;
2434;SDS011;1228;51.022;6.764;2022-12-16T09:09:05;11.27;;;10.17;;
2434;SDS011;1228;51.022;6.764;2022-12-16T09:11:49;11.03;;;9.53;;
2434;SDS011;1228;51.022;6.764;2022-12-16T09:14:33;10.17;;;8.47;;
2434;SDS011;1228;51.022;6.764;2022-12-16T09:17:17;15.43;;;11.03;;
2434;SDS011;1228;51.022;6.764;2022-12-16T09:20:03;20.53;;;11.77;;
2434;SDS011;1228;51.022;6.764;2022-12-16T09:22:48;13.23;;;9.23;;
2434;SDS011;1228;51.022;6.764;2022-12-16T09:25:32;15.20;;;11.00;;
2434;SDS011;1228;51.022;6.764;2022-12-16T09:28:15;24.40;;;13.67;;
2434;SDS011;1228;51.022;6.764;2022-12-16T09:31:00;27.00;;;13.13;;
2434;SDS011;1228;51.022;6.764;2022-12-16T09:33:43;24.40;;;14.23;;
2434;SDS011;1228;51.022;6.764;2022-12-16T09:36:27;23.03;;;15.50;;
2434;SDS011;1228;51.022;6.764;2022-12-16T09:39:11;24.33;;;16.53;;
2434;SDS011;1228;51.022;6.764;2022-12-16T09:42:13;19.90;;;16.90;;
2434;SDS011;1228;51.022;6.764;2022-12-16T09:45:15;21.33;;;15.83;;
2434;SDS011;1228;51.022;6.764;2022-12-16T09:51:39;21.87;;;13.07;;
2434;SDS011;1228;51.022;6.764;2022-12-16T09:54:26;23.67;;;14.03;;
2434;SDS011;1228;51.022;6.764;2022-12-16T09:57:12;29.77;;;13.67;;
2434;SDS011;1228;51.022;6.764;2022-12-16T10:00:02;24.83;;;14.47;;
2434;SDS011;1228;51.022;6.764;2022-12-16T10:02:49;16.77;;;12.07;;
2434;SDS011;1228;51.022;6.764;2022-12-16T10:05:43;17.97;;;12.97;;
2434;SDS011;1228;51.022;6.764;2022-12-16T10:08:40;17.17;;;13.73;;
2434;SDS011;1228;51.022;6.764;2022-12-16T10:11:41;17.27;;;11.77;;
2434;SDS011;1228;51.022;6.764;2022-12-16T10:14:38;15.63;;;13.13;;
2434;SDS011;1228;51.022;6.764;2022-12-16T10:17:35;15.80;;;12.63;;
2434;SDS011;1228;51.022;6.764;2022-12-16T10:23:20;20.37;;;14.93;;
2434;SDS011;1228;51.022;6.764;2022-12-16T10:26:27;18.50;;;12.67;;
2434;SDS011;1228;51.022;6.764;2022-12-16T10:29:24;21.27;;;12.07;;
2434;SDS011;1228;51.022;6.764;2022-12-16T10:32:15;27.43;;;12.43;;
2434;SDS011;1228;51.022;6.764;2022-12-16T10:35:19;38.73;;;15.50;;
2434;SDS011;1228;51.022;6.764;2022-12-16T10:38:42;13.53;;;11.03;;
2434;SDS011;1228;51.022;6.764;2022-12-16T10:41:31;13.83;;;11.93;;
2434;SDS011;1228;51.022;6.764;2022-12-16T10:47:08;15.80;;;11.90;;
2434;SDS011;1228;51.022;6.764;2022-12-16T10:49:53;15.53;;;11.90;;
2434;SDS011;1228;51.022;6.764;2022-12-16T10:53:00;16.57;;;11.73;;
2434;SDS011;1228;51.022;6.764;2022-12-16T10:59:05;20.10;;;13.03;;
2434;SDS011;1228;51.022;6.764;2022-12-16T11:01:55;13.97;;;12.50;;
2434;SDS011;1228;51.022;6.764;2022-12-16T11:04:43;13.70;;;12.23;;
2434;SDS011;1228;51.022;6.764;2022-12-16T11:10:24;19.80;;;11.60;;
2434;SDS011;1228;51.022;6.764;2022-12-16T11:16:16;17.60;;;10.90;;
2434;SDS011;1228;51.022;6.764;2022-12-16T11:19:18;11.03;;;10.13;;
2434;SDS011;1228;51.022;6.764;2022-12-16T11:22:20;12.47;;;11.23;;
2434;SDS011;1228;51.022;6.764;2022-12-16T11:28:02;16.27;;;11.63;;
2434;SDS011;1228;51.022;6.764;2022-12-16T11:30:51;16.03;;;9.53;;
2434;SDS011;1228;51.022;6.764;2022-12-16T11:33:37;13.13;;;11.50;;
2434;SDS011;1228;51.022;6.764;2022-12-16T11:36:22;12.47;;;9.07;;
2434;SDS011;1228;51.022;6.764;2022-12-16T11:39:12;19.93;;;10.17;;
2434;SDS011;1228;51.022;6.764;2022-12-16T11:41:59;12.40;;;11.00;;
2434;SDS011;1228;51.022;6.764;2022-12-16T11:44:48;13.63;;;10.93;;
2434;SDS011;1228;51.022;6.764;2022-12-16T11:50:47;12.23;;;9.20;;
2434;SDS011;1228;51.022;6.764;2022-12-16T11:56:57;12.70;;;8.70;;
2434;SDS011;1228;51.022;6.764;2022-12-16T11:59:58;11.47;;;9.33;;
2434;SDS011;1228;51.022;6.764;2022-12-16T12:05:36;8.87;;;8.20;;
2434;SDS011;1228;51.022;6.764;2022-12-16T12:08:31;12.23;;;11.17;;
2434;SDS011;1228;51.022;6.764;2022-12-16T12:11:34;17.90;;;8.57;;
2434;SDS011;1228;51.022;6.764;2022-12-16T12:20:28;12.87;;;9.40;;
2434;SDS011;1228;51.022;6.764;2022-12-16T12:23:21;13.80;;;10.70;;
2434;SDS011;1228;51.022;6.764;2022-12-16T12:26:38;11.40;;;10.40;;
2434;SDS011;1228;51.022;6.764;2022-12-16T12:29:39;16.60;;;11.77;;
2434;SDS011;1228;51.022;6.764;2022-12-16T12:41:51;13.60;;;12.30;;
2434;SDS011;1228;51.022;6.764;2022-12-16T12:45:16;15.07;;;11.47;;
2434;SDS011;1228;51.022;6.764;2022-12-16T12:48:16;16.30;;;11.03;;
2434;SDS011;1228;51.022;6.764;2022-12-16T12:51:15;15.93;;;12.37;;
2434;SDS011;1228;51.022;6.764;2022-12-16T12:57:25;15.33;;;12.60;;
2434;SDS011;1228;51.022;6.764;2022-12-16T13:03:17;10.87;;;8.90;;
2434;SDS011;1228;51.022;6.764;2022-12-16T13:06:13;11.63;;;10.50;;
2434;SDS011;1228;51.022;6.764;2022-12-16T13:08:58;11.80;;;10.53;;
2434;SDS011;1228;51.022;6.764;2022-12-16T13:20:46;17.17;;;10.20;;
2434;SDS011;1228;51.022;6.764;2022-12-16T13:23:35;14.30;;;11.47;;
2434;SDS011;1228;51.022;6.764;2022-12-16T13:26:24;13.53;;;11.17;;
2434;SDS011;1228;51.022;6.764;2022-12-16T13:29:18;15.47;;;10.63;;
2434;SDS011;1228;51.022;6.764;2022-12-16T13:32:20;10.87;;;9.80;;
2434;SDS011;1228;51.022;6.764;2022-12-16T13:38:01;12.80;;;11.43;;
2434;SDS011;1228;51.022;6.764;2022-12-16T13:46:50;19.20;;;9.37;;
2434;SDS011;1228;51.022;6.764;2022-12-16T13:53:08;14.47;;;10.97;;
2434;SDS011;1228;51.022;6.764;2022-12-16T13:55:59;19.63;;;11.07;;
2434;SDS011;1228;51.022;6.764;2022-12-16T13:58:47;22.13;;;9.80;;
2434;SDS011;1228;51.022;6.764;2022-12-16T14:01:42;15.97;;;12.03;;
2434;SDS011;1228;51.022;6.764;2022-12-16T14:04:38;21.80;;;11.70;;
2434;SDS011;1228;51.022;6.764;2022-12-16T14:07:26;13.83;;;10.63;;
2434;SDS011;1228;51.022;6.764;2022-12-16T14:10:23;20.93;;;12.73;;
2434;SDS011;1228;51.022;6.764;2022-12-16T14:13:13;18.87;;;11.00;;
2434;SDS011;1228;51.022;6.764;2022-12-16T14:21:51;19.43;;;12.43;;
2434;SDS011;1228;51.022;6.764;2022-12-16T14:24:42;9.63;;;8.57;;
2434;SDS011;1228;51.022;6.764;2022-12-16T14:27:27;13.20;;;9.87;;
2434;SDS011;1228;51.022;6.764;2022-12-16T14:30:16;18.83;;;14.60;;
2434;SDS011;1228;51.022;6.764;2022-12-16T14:33:23;25.83;;;11.77;;
2434;SDS011;1228;51.022;6.764;2022-12-16T14:36:42;25.03;;;11.67;;
2434;SDS011;1228;51.022;6.764;2022-12-16T14:39:22;20.30;;;12.63;;
2434;SDS011;1228;51.022;6.764;2022-12-16T14:42:18;21.60;;;14.63;;
2434;SDS011;1228;51.022;6.764;2022-12-16T14:45:19;12.10;;;9.83;;
2434;SDS011;1228;51.022;6.764;2022-12-16T14:57:01;35.00;;;11.37;;
2434;SDS011;1228;51.022;6.764;2022-12-16T14:59:46;23.87;;;12.03;;
2434;SDS011;1228;51.022;6.764;2022-12-16T15:02:32;22.23;;;12.57;;
2434;SDS011;1228;51.022;6.764;2022-12-16T15:05:25;17.93;;;11.50;;
2434;SDS011;1228;51.022;6.764;2022-12-16T15:08:13;21.93;;;13.63;;
2434;SDS011;1228;51.022;6.764;2022-12-16T15:10:58;25.87;;;11.67;;
2434;SDS011;1228;51.022;6.764;2022-12-16T15:13:43;31.53;;;12.47;;
2434;SDS011;1228;51.022;6.764;2022-12-16T15:16:30;16.93;;;11.87;;
2434;SDS011;1228;51.022;6.764;2022-12-16T15:19:19;23.63;;;11.17;;
2434;SDS011;1228;51.022;6.764;2022-12-16T15:22:05;19.60;;;12.97;;
2434;SDS011;1228;51.022;6.764;2022-12-16T15:24:57;17.70;;;12.70;;
2434;SDS011;1228;51.022;6.764;2022-12-16T15:27:41;20.13;;;9.83;;
2434;SDS011;1228;51.022;6.764;2022-12-16T15:30:44;16.30;;;11.43;;
2434;SDS011;1228;51.022;6.764;2022-12-16T15:33:36;24.97;;;11.90;;
2434;SDS011;1228;51.022;6.764;2022-12-16T15:39:09;26.50;;;12.60;;
2434;SDS011;1228;51.022;6.764;2022-12-16T15:42:00;22.60;;;12.83;;
2434;SDS011;1228;51.022;6.764;2022-12-16T15:44:45;16.93;;;12.90;;
2434;SDS011;1228;51.022;6.764;2022-12-16T15:47:32;18.07;;;12.43;;
2434;SDS011;1228;51.022;6.764;2022-12-16T15:50:20;15.27;;;11.80;;
2434;SDS011;1228;51.022;6.764;2022-12-16T15:53:15;17.60;;;12.90;;
2434;SDS011;1228;51.022;6.764;2022-12-16T15:56:23;27.43;;;12.47;;
2434;SDS011;1228;51.022;6.764;2022-12-16T15:59:23;25.57;;;12.73;;
2434;SDS011;1228;51.022;6.764;2022-12-16T16:02:12;20.53;;;13.27;;
2434;SDS011;1228;51.022;6.764;2022-12-16T16:04:58;20.30;;;13.00;;
2434;SDS011;1228;51.022;6.764;2022-12-16T16:07:42;29.23;;;12.70;;
2434;SDS011;1228;51.022;6.764;2022-12-16T16:10:27;14.13;;;11.40;;
2434;SDS011;1228;51.022;6.764;2022-12-16T16:13:11;15.83;;;12.00;;
2434;SDS011;1228;51.022;6.764;2022-12-16T16:15:55;13.00;;;11.47;;
2434;SDS011;1228;51.022;6.764;2022-12-16T16:18:40;19.07;;;12.33;;
2434;SDS011;1228;51.022;6.764;2022-12-16T16:21:25;13.40;;;11.93;;
2434;SDS011;1228;51.022;6.764;2022-12-16T16:24:10;18.07;;;11.13;;
2434;SDS011;1228;51.022;6.764;2022-12-16T16:26:56;15.57;;;11.47;;
2434;SDS011;1228;51.022;6.764;2022-12-16T16:29:44;16.87;;;10.57;;
2434;SDS011;1228;51.022;6.764;2022-12-16T16:32:28;23.30;;;11.63;;
2434;SDS011;1228;51.022;6.764;2022-12-16T16:35:12;18.67;;;11.97;;
2434;SDS011;1228;51.022;6.764;2022-12-16T16:37:56;24.30;;;11.83;;
2434;SDS011;1228;51.022;6.764;2022-12-16T16:40:41;22.97;;;14.90;;
2434;SDS011;1228;51.022;6.764;2022-12-16T16:43:27;19.27;;;12.53;;
2434;SDS011;1228;51.022;6.764;2022-12-16T16:49:02;21.90;;;12.93;;
2434;SDS011;1228;51.022;6.764;2022-12-16T16:51:46;13.27;;;10.57;;
2434;SDS011;1228;51.022;6.764;2022-12-16T16:54:30;24.23;;;12.10;;
2434;SDS011;1228;51.022;6.764;2022-12-16T16:57:14;15.33;;;12.47;;
2434;SDS011;1228;51.022;6.764;2022-12-16T16:59:58;16.40;;;12.23;;
2434;SDS011;1228;51.022;6.764;2022-12-16T17:02:56;22.43;;;13.43;;
2434;SDS011;1228;51.022;6.764;2022-12-16T17:05:40;28.20;;;13.73;;
2434;SDS011;1228;51.022;6.764;2022-12-16T17:08:24;31.77;;;14.17;;
2434;SDS011;1228;51.022;6.764;2022-12-16T17:11:15;24.30;;;12.47;;
2434;SDS011;1228;51.022;6.764;2022-12-16T17:14:01;30.60;;;12.97;;
2434;SDS011;1228;51.022;6.764;2022-12-16T17:16:45;20.03;;;11.93;;
2434;SDS011;1228;51.022;6.764;2022-12-16T17:19:29;28.07;;;12.03;;
2434;SDS011;1228;51.022;6.764;2022-12-16T17:22:13;23.63;;;15.20;;
2434;SDS011;1228;51.022;6.764;2022-12-16T17:24:57;21.23;;;14.73;;
2434;SDS011;1228;51.022;6.764;2022-12-16T17:27:42;30.67;;;12.60;;
2434;SDS011;1228;51.022;6.764;2022-12-16T17:30:27;26.73;;;12.17;;
2434;SDS011;1228;51.022;6.764;2022-12-16T17:33:11;25.70;;;14.03;;
2434;SDS011;1228;51.022;6.764;2022-12-16T17:35:55;31.07;;;14.27;;
2434;SDS011;1228;51.022;6.764;2022-12-16T17:38:40;43.00;;;15.70;;
2434;SDS011;1228;51.022;6.764;2022-12-16T17:41:29;22.93;;;13.80;;
2434;SDS011;1228;51.022;6.764;2022-12-16T17:44:14;19.10;;;11.77;;
2434;SDS011;1228;51.022;6.764;2022-12-16T17:46:59;25.80;;;13.00;;
2434;SDS011;1228;51.022;6.764;2022-12-16T17:49:44;29.30;;;15.93;;
2434;SDS011;1228;51.022;6.764;2022-12-16T17:52:28;36.10;;;14.10;;
2434;SDS011;1228;51.022;6.764;2022-12-16T17:55:13;26.70;;;16.07;;
2434;SDS011;1228;51.022;6.764;2022-12-16T17:57:57;30.93;;;17.27;;
2434;SDS011;1228;51.022;6.764;2022-12-16T18:00:41;21.17;;;12.73;;
2434;SDS011;1228;51.022;6.764;2022-12-16T18:03:25;29.97;;;14.83;;
2434;SDS011;1228;51.022;6.764;2022-12-16T18:06:10;22.17;;;13.27;;
2434;SDS011;1228;51.022;6.764;2022-12-16T18:08:54;25.67;;;14.97;;
2434;SDS011;1228;51.022;6.764;2022-12-16T18:11:38;23.10;;;16.10;;
2434;SDS011;1228;51.022;6.764;2022-12-16T18:14:22;29.47;;;15.00;;
2434;SDS011;1228;51.022;6.764;2022-12-16T18:17:06;18.00;;;14.60;;
2434;SDS011;1228;51.022;6.764;2022-12-16T18:19:50;15.87;;;13.07;;
2434;SDS011;1228;51.022;6.764;2022-12-16T18:22:34;41.93;;;15.93;;
2434;SDS011;1228;51.022;6.764;2022-12-16T18:25:18;29.63;;;14.20;;
2434;SDS011;1228;51.022;6.764;2022-12-16T18:28:02;45.50;;;14.40;;
2434;SDS011;1228;51.022;6.764;2022-12-16T18:30:46;35.33;;;17.07;;
2434;SDS011;1228;51.022;6.764;2022-12-16T18:33:31;45.20;;;18.10;;
2434;SDS011;1228;51.022;6.764;2022-12-16T18:36:15;39.77;;;15.40;;
2434;SDS011;1228;51.022;6.764;2022-12-16T18:38:59;34.37;;;17.77;;